• Join FlightAware (Why Join?)
  • Login
  • US Flag 
09:01PM EST


 

Airport Tracker/Info


-or-


 

Live Flight TrackerFlight Track Log ✈ UCA3599 ✈ 03-Sep-2013 ✈ KBGM - KIAD

Flight Track Log - Related Links

Times and Time Zones

All times are in EDT time to prevent confusion due to time zone crossing. See the UCA3599 flight status page for this flight to view local times or setup timezone preferences in your user account.

Time Position Orientation Groundspeed Altitude Reporting Facility
EDT Latitude Longitude Course Direction KTS MPH feet Rate Location/Type
06:18AM 42.1928 -76.0581 209° Southwest 137 158 4,400  Level New York Center
06:19AM 42.1497 -76.0908 209° Southwest 167 192 5,800 1,500 Climbing New York Center
06:20AM 42.1089 -76.1239 211° Southwest 178 205 7,500 1,500 Climbing New York Center
06:21AM 42.0742 -76.1547 213° Southwest 171 197 8,800 1,320 Climbing New York Center
06:22AM 41.9548 -76.2821 212° Southwest  Level FlightAware Approximate
06:22AM 42.0350 -76.1878 212° Southwest 171 197 10,100  Level New York Center
06:23AM 41.9027 -76.3230 209° Southwest  Level FlightAware Approximate
06:23AM 41.9981 -76.2239 216° Southwest 171 197 11,200  Level New York Center
06:24AM 41.8500 -76.3626 209° Southwest  Level FlightAware Approximate
06:24AM 41.9614 -76.2514 209° Southwest 176 203 12,500  Level New York Center
06:25AM 41.9225 -76.2844 212° Southwest 176 203 13,700 720 Climbing New York Center
06:26AM 41.8767 -76.3253 214° Southwest 182 209 14,000 540 Climbing New York Center
06:27AM 41.8292 -76.3631 211° Southwest 199 229 14,900 960 Climbing New York Center
06:28AM 41.7878 -76.4014 215° Southwest 194 223 16,000 540 Climbing New York Center
06:29AM 41.7403 -76.4389 211° Southwest 205 236 16,000  Level New York Center
06:30AM 41.6817 -76.4897 213° Southwest 221 254 16,000  Level New York Center
06:31AM 41.6272 -76.5350 212° Southwest 226 260 16,000  Level New York Center
06:32AM 41.5731 -76.5775 210° Southwest 232 267 16,000  Level New York Center
06:33AM 41.5231 -76.6203 213° Southwest 243 280 16,000  Level New York Center
06:34AM 41.4689 -76.6653 212° Southwest 243 280 16,000  Level New York Center
06:35AM 41.4078 -76.7208 214° Southwest 243 280 16,000  Level New York Center
06:36AM 41.3514 -76.7656 211° Southwest 243 280 16,000  Level New York Center
06:37AM 41.2875 -76.7903 196° South 243 280 16,000  Level New York Center
06:38AM 41.2203 -76.8036 188° South 238 274 16,000  Level New York Center
06:39AM 41.1508 -76.8139 186° South 248 285 16,000  Level New York Center
06:40AM 41.0814 -76.8269 188° South 254 292 16,000  Level New York Center
06:41AM 41.0142 -76.8403 189° South 254 292 16,000  Level New York Center
06:42AM 40.9467 -76.8536 188° South 254 292 16,000  Level New York Center
06:43AM 40.8794 -76.8667 188° South 254 292 16,000  Level New York Center
06:44AM 40.8161 -76.8803 189° South 260 299 16,000  Level New York Center
06:45AM 40.7422 -76.9011 192° South 260 299 16,000  Level New York Center
06:46AM 40.6789 -76.9172 191° South 260 299 16,000  Level New York Center
06:47AM 40.6067 -76.9436 196° South 260 299 16,000  Level New York Center
06:48AM 40.5472 -76.9603 192° South 260 299 16,000  Level New York Center
06:49AM 40.4711 -76.9833 193° South 255 293 16,000  Level New York Center
06:50AM 40.4117 -77.0025 194° South 255 293 16,000  Level New York Center
06:51AM 40.3356 -77.0256 193° South 255 293 16,000  Level New York Center
06:52AM 40.2761 -77.0447 194° South 255 293 16,000 -720 Level New York Center
06:54AM 40.1500 -77.0833 193° South 271 312 14,200 -1,260 Descending Potomac TRACON
06:55AM 40.0833 -77.1000 191° South 278 320 12,900 -1,440 Descending Potomac TRACON
06:56AM 40.0167 -77.1167 191° South 266 306 11,500 -1,380 Descending Potomac TRACON
06:57AM 39.9500 -77.1500 201° Southwest 259 298 10,300 -1,260 Descending Potomac TRACON
06:58AM 39.8833 -77.1667 191° South 256 295 9,000 -660 Descending Potomac TRACON
06:59AM 39.8167 -77.1833 191° South 253 291 9,000 -360 Level Potomac TRACON
07:00AM 39.7500 -77.2000 191° South 243 280 8,300 -900 Descending Potomac TRACON
07:01AM 39.7000 -77.2167 194° South 248 285 7,400 -780 Descending Potomac TRACON
07:01AM 39.6333 -77.2667 210° Southwest 246 283 7,000 -240 Descending Potomac TRACON
07:02AM 39.5833 -77.2833 194° South 240 276 7,000  Level Potomac TRACON
07:03AM 39.5167 -77.3167 201° Southwest 239 275 7,000  Level Potomac TRACON
07:04AM 39.4667 -77.3333 194° South 241 277 7,000 -120 Level Potomac TRACON
07:05AM 39.4000 -77.3667 201° Southwest 239 275 6,800 -660 Descending Potomac TRACON
07:06AM 39.3333 -77.3667 180° South 244 281 5,800 -1,020 Descending Potomac TRACON
07:07AM 39.2667 -77.3667 180° South 246 283 5,000 -840 Descending Potomac TRACON
07:08AM 39.2000 -77.3667 180° South 245 282 4,300 -540 Descending Potomac TRACON
07:09AM 39.1333 -77.3500 169° South 250 288 4,000 -180 Descending Potomac TRACON
07:10AM 39.0667 -77.3500 180° South 254 292 4,000 -540 Level Potomac TRACON
07:11AM 38.9833 -77.3500 180° South 281 323 3,000 -900 Descending Potomac TRACON
07:12AM 38.9167 -77.3500 180° South 258 297 2,300 -660 Descending Potomac TRACON
07:13AM 38.8667 -77.3667 195° South 196 226 1,800 -600 Descending Potomac TRACON
07:14AM 38.8833 -77.4167 293° West 104 120 1,200 -540 Descending Potomac TRACON
07:15AM 38.9000 -77.4333 322° Northwest 100 115 800 -420 Descending Potomac TRACON
07:17AM 38.9333 -77.4500 349° North  Level FlightAware Approximate
07:24AM 38.9474 -77.4599 349° North  Level Estimated